createdAt,value
2023-05-03T00:00:15.288Z,58.28
2023-05-03T00:02:45.246Z,58.64
2023-05-03T00:05:14.488Z,59.35
2023-05-03T00:07:44.126Z,58.90
2023-05-03T00:10:17.799Z,58.92
2023-05-03T00:12:45.645Z,58.98
2023-05-03T00:15:13.527Z,59.25
2023-05-03T00:17:41.578Z,59.52
2023-05-03T00:20:11.568Z,59.45
2023-05-03T00:22:41.362Z,60.15
2023-05-03T00:25:09.933Z,60.01
2023-05-03T00:27:37.911Z,60.26
2023-05-03T00:30:07.460Z,60.66
2023-05-03T00:32:37.756Z,60.82
2023-05-03T00:35:06.310Z,61.17
2023-05-03T00:37:34.246Z,61.33
2023-05-03T00:40:02.250Z,61.10
2023-05-03T00:42:30.269Z,61.27
2023-05-03T00:44:58.047Z,61.59
2023-05-03T00:47:26.051Z,61.90
2023-05-03T00:49:53.833Z,62.11
2023-05-03T00:52:21.798Z,62.21
2023-05-03T00:54:49.547Z,62.14
2023-05-03T00:57:17.267Z,62.18
2023-05-03T00:59:45.600Z,62.65
2023-05-03T01:02:13.335Z,62.78
2023-05-03T01:04:43.310Z,62.89
2023-05-03T01:07:34.860Z,63.27
2023-05-03T01:10:36.321Z,63.12
2023-05-03T01:13:42.049Z,62.96
2023-05-03T01:16:18.155Z,63.15
2023-05-03T01:18:51.263Z,63.61
2023-05-03T01:21:22.311Z,63.83
2023-05-03T01:24:04.064Z,63.53
2023-05-03T01:26:32.918Z,63.38
2023-05-03T01:29:00.757Z,63.67
2023-05-03T01:31:55.151Z,63.78
2023-05-03T01:34:48.882Z,63.67
2023-05-03T01:37:18.479Z,63.47
2023-05-03T01:39:59.827Z,63.88
2023-05-03T01:42:28.905Z,63.71
2023-05-03T01:44:57.041Z,63.65
2023-05-03T01:47:26.207Z,63.96
2023-05-03T01:49:54.077Z,63.72
2023-05-03T01:52:24.385Z,63.40
2023-05-03T01:54:52.102Z,63.41
2023-05-03T01:57:19.997Z,63.27
2023-05-03T01:59:47.922Z,63.48
2023-05-03T02:02:15.604Z,63.43
2023-05-03T02:04:43.447Z,63.58
2023-05-03T02:07:11.409Z,63.70
2023-05-03T02:09:39.572Z,63.89
2023-05-03T02:12:07.828Z,64.00
2023-05-03T02:14:35.896Z,63.86
2023-05-03T02:17:03.853Z,63.78
2023-05-03T02:19:32.001Z,63.72
2023-05-03T02:22:01.221Z,63.76
2023-05-03T02:24:29.142Z,63.66
2023-05-03T02:26:57.291Z,63.73
2023-05-03T02:29:25.024Z,63.73
2023-05-03T02:31:52.516Z,63.66
2023-05-03T02:34:20.392Z,63.67
2023-05-03T02:36:48.559Z,63.66
2023-05-03T02:39:17.032Z,63.53
2023-05-03T02:41:45.364Z,63.62
2023-05-03T02:44:13.660Z,63.43
2023-05-03T02:46:41.787Z,63.45
2023-05-03T02:49:10.393Z,63.50
2023-05-03T02:51:38.736Z,63.45
2023-05-03T02:57:36.674Z,63.75
2023-05-03T03:00:19.801Z,63.68
2023-05-03T03:02:47.818Z,63.69
2023-05-03T03:05:15.988Z,63.77
2023-05-03T03:07:45.811Z,63.81
2023-05-03T03:10:13.855Z,63.85
2023-05-03T03:12:41.903Z,64.03
2023-05-03T03:15:11.183Z,64.42
2023-05-03T03:17:39.560Z,64.14
2023-05-03T03:20:11.312Z,64.26
2023-05-03T03:22:39.954Z,64.68
2023-05-03T03:25:08.849Z,64.44
2023-05-03T03:27:39.071Z,64.42
2023-05-03T03:30:08.869Z,64.55
2023-05-03T03:32:37.011Z,64.79
2023-05-03T03:35:07.135Z,65.03
2023-05-03T03:37:35.093Z,65.37
2023-05-03T03:40:03.825Z,65.30
2023-05-03T03:42:32.303Z,64.69
2023-05-03T03:45:00.281Z,64.50
2023-05-03T03:47:28.013Z,63.64
2023-05-03T03:49:56.107Z,62.85
2023-05-03T03:52:24.281Z,61.38
2023-05-03T03:54:52.654Z,60.83
2023-05-03T03:57:20.774Z,60.17
2023-05-03T03:59:50.759Z,59.47
2023-05-03T04:02:18.753Z,59.70
2023-05-03T04:04:46.911Z,59.76
2023-05-03T04:07:16.749Z,58.75
2023-05-03T04:09:45.474Z,57.29
2023-05-03T04:12:13.465Z,55.41
2023-05-03T04:14:43.450Z,54.83
2023-05-03T04:17:30.095Z,52.95
2023-05-03T04:20:08.726Z,51.59
2023-05-03T04:22:43.878Z,50.47
2023-05-03T04:25:27.039Z,49.19
2023-05-03T04:28:01.093Z,48.29
2023-05-03T04:30:31.990Z,47.81
2023-05-03T04:33:03.312Z,47.92
2023-05-03T04:35:38.598Z,47.55
2023-05-03T04:38:11.019Z,46.69
2023-05-03T04:40:39.360Z,45.97
2023-05-03T04:43:11.352Z,44.47
2023-05-03T04:45:41.901Z,42.93
2023-05-03T04:48:11.984Z,42.74
2023-05-03T04:50:39.819Z,41.83
2023-05-03T04:53:09.079Z,40.41
2023-05-03T04:55:38.807Z,38.93
2023-05-03T04:58:07.222Z,38.71
2023-05-03T05:00:36.106Z,37.45
2023-05-03T05:03:05.976Z,37.27
2023-05-03T05:05:35.175Z,36.63
2023-05-03T05:08:03.712Z,36.35
2023-05-03T05:10:40.390Z,35.64
2023-05-03T05:13:10.202Z,35.55
2023-05-03T05:15:38.458Z,36.24
2023-05-03T05:18:08.937Z,36.52
2023-05-03T05:20:37.779Z,36.03
2023-05-03T05:23:06.266Z,36.40
2023-05-03T05:25:34.422Z,36.67
2023-05-03T05:28:03.351Z,36.82
2023-05-03T05:30:31.696Z,36.78
2023-05-03T05:33:03.407Z,36.81
2023-05-03T05:35:43.331Z,36.52
2023-05-03T05:38:17.313Z,36.88
2023-05-03T05:40:47.436Z,36.28
2023-05-03T05:43:15.738Z,36.81
2023-05-03T05:45:45.751Z,36.62
2023-05-03T05:48:15.052Z,37.22
2023-05-03T05:50:44.124Z,38.08
2023-05-03T05:53:12.871Z,37.18
2023-05-03T05:55:42.774Z,37.25
2023-05-03T05:58:12.484Z,37.34
2023-05-03T06:00:41.864Z,36.90
2023-05-03T06:03:09.991Z,36.66
2023-05-03T06:05:38.430Z,36.46
2023-05-03T06:08:06.503Z,35.73
2023-05-03T06:10:51.698Z,35.11
2023-05-03T06:14:36.977Z,35.14
2023-05-03T06:16:56.753Z,34.83
2023-05-03T06:19:31.013Z,33.98
2023-05-03T06:22:02.860Z,33.68
2023-05-03T06:27:48.293Z,33.19
2023-05-03T06:30:27.354Z,32.81
2023-05-03T06:33:13.938Z,32.77
2023-05-03T06:36:08.940Z,32.74
2023-05-03T06:38:41.574Z,32.45
2023-05-03T06:41:42.111Z,32.24
2023-05-03T06:44:17.765Z,32.02
2023-05-03T06:47:11.335Z,30.16
2023-05-03T06:52:53.797Z,28.61
2023-05-03T06:59:04.448Z,28.85
2023-05-03T07:01:45.631Z,28.30
2023-05-03T07:04:28.100Z,26.60
2023-05-03T07:07:06.949Z,26.21
2023-05-03T07:09:44.370Z,25.06
2023-05-03T07:12:13.108Z,25.41
2023-05-03T07:14:52.769Z,25.21
2023-05-03T07:17:24.644Z,26.55
2023-05-03T07:20:04.076Z,26.59
2023-05-03T07:23:10.939Z,26.09
2023-05-03T07:25:43.861Z,25.66
2023-05-03T07:28:15.936Z,25.45
2023-05-03T07:30:48.329Z,25.31
2023-05-03T07:33:16.878Z,25.00
2023-05-03T07:35:55.379Z,24.81
2023-05-03T07:38:25.734Z,24.32
2023-05-03T07:40:58.277Z,24.16
2023-05-03T07:50:18.045Z,23.47
2023-05-03T07:53:13.006Z,22.88
2023-05-03T07:58:40.619Z,23.41
2023-05-03T08:01:13.927Z,24.23
2023-05-03T08:04:08.632Z,24.64
2023-05-03T08:06:43.318Z,24.24
2023-05-03T08:09:13.789Z,24.86
2023-05-03T08:11:45.802Z,25.28
2023-05-03T08:14:15.491Z,24.93
2023-05-03T08:16:43.593Z,25.11
2023-05-03T08:19:12.435Z,24.74
2023-05-03T08:22:16.447Z,24.88
2023-05-03T08:24:52.391Z,24.18
2023-05-03T08:27:25.225Z,24.81
2023-05-03T08:29:58.528Z,25.10
2023-05-03T08:32:30.056Z,25.45
2023-05-03T08:34:59.539Z,25.95
2023-05-03T08:37:27.760Z,26.26
2023-05-03T08:39:57.909Z,26.66
2023-05-03T08:42:32.937Z,26.97
2023-05-03T08:45:05.622Z,27.03
2023-05-03T08:47:57.184Z,27.04
2023-05-03T08:50:31.549Z,27.00
2023-05-03T08:53:05.671Z,27.21
2023-05-03T08:55:40.503Z,27.42
2023-05-03T08:58:31.203Z,27.04
2023-05-03T09:01:14.489Z,26.97
2023-05-03T09:03:55.156Z,26.99
2023-05-03T09:06:28.014Z,26.83
2023-05-03T09:09:04.206Z,26.87
2023-05-03T09:11:39.727Z,27.10
2023-05-03T09:14:13.332Z,27.36
2023-05-03T09:16:46.293Z,26.76
2023-05-03T09:19:16.477Z,26.83
2023-05-03T09:21:51.308Z,27.07
2023-05-03T09:24:34.163Z,27.14
2023-05-03T09:27:06.454Z,27.21
2023-05-03T09:29:36.626Z,27.28
2023-05-03T09:32:07.263Z,27.50
2023-05-03T09:34:40.317Z,27.33
2023-05-03T09:37:14.390Z,27.80
2023-05-03T09:39:55.162Z,27.78
2023-05-03T09:42:26.096Z,27.80
2023-05-03T09:44:59.063Z,28.31
2023-05-03T09:47:31.791Z,28.06
2023-05-03T09:49:58.561Z,27.30
2023-05-03T09:52:33.201Z,27.38
2023-05-03T09:55:01.881Z,27.01
2023-05-03T09:57:46.072Z,27.20
2023-05-03T10:00:17.874Z,26.72
2023-05-03T10:02:48.528Z,26.98
2023-05-03T10:05:23.538Z,27.05
2023-05-03T10:07:59.522Z,26.97
2023-05-03T10:10:32.842Z,26.85
2023-05-03T10:13:04.561Z,27.64
2023-05-03T10:15:37.335Z,27.24
2023-05-03T10:18:09.342Z,26.97
2023-05-03T10:20:45.925Z,27.02
2023-05-03T10:23:14.562Z,27.21
2023-05-03T10:26:14.619Z,26.73
2023-05-03T10:28:46.756Z,26.55
2023-05-03T10:31:51.806Z,26.50
2023-05-03T10:34:25.592Z,26.21
2023-05-03T10:36:55.325Z,25.92
2023-05-03T10:39:27.586Z,25.61
2023-05-03T10:42:05.799Z,26.09
2023-05-03T10:44:56.813Z,26.41
2023-05-03T10:47:24.881Z,26.82
2023-05-03T10:50:18.203Z,26.81
2023-05-03T10:52:49.348Z,26.16
2023-05-03T10:55:24.289Z,26.17
2023-05-03T10:57:57.233Z,25.88
2023-05-03T11:00:38.693Z,25.78
2023-05-03T11:03:54.853Z,25.77
2023-05-03T11:06:36.873Z,25.14
2023-05-03T11:09:07.764Z,25.37
2023-05-03T11:11:39.737Z,25.81
2023-05-03T11:14:10.167Z,25.56
2023-05-03T11:16:42.478Z,25.65
2023-05-03T11:19:11.695Z,25.48
2023-05-03T11:21:40.105Z,24.87
2023-05-03T11:24:10.479Z,24.83
2023-05-03T11:26:39.744Z,25.14
2023-05-03T11:29:14.819Z,24.75
2023-05-03T11:34:46.392Z,24.15
2023-05-03T11:37:16.674Z,24.14
2023-05-03T11:39:50.019Z,24.22
2023-05-03T11:42:18.789Z,24.39
2023-05-03T11:44:56.734Z,24.17
2023-05-03T11:50:08.061Z,24.32
2023-05-03T11:52:37.175Z,24.47
2023-05-03T11:55:08.814Z,24.41
2023-05-03T12:00:46.345Z,24.65
2023-05-03T12:03:32.069Z,23.90
2023-05-03T12:06:04.702Z,24.21
2023-05-03T12:08:39.573Z,24.01
2023-05-03T12:11:09.683Z,23.93
2023-05-03T12:13:44.302Z,24.29
2023-05-03T12:16:27.255Z,24.69
2023-05-03T12:19:09.396Z,24.51
2023-05-03T12:22:07.813Z,24.90
2023-05-03T12:24:32.689Z,25.24
2023-05-03T12:27:01.511Z,24.30
2023-05-03T12:32:45.369Z,23.89
2023-05-03T12:38:10.293Z,24.68
2023-05-03T12:40:55.676Z,24.50
2023-05-03T12:43:28.270Z,24.46
2023-05-03T12:46:32.394Z,24.86
2023-05-03T12:48:46.951Z,25.07
2023-05-03T12:54:10.263Z,24.85
2023-05-03T12:57:00.314Z,24.70
2023-05-03T12:59:52.353Z,24.89
2023-05-03T13:12:49.600Z,25.21
2023-05-03T13:15:46.799Z,24.61
2023-05-03T13:18:09.409Z,24.86
2023-05-03T13:21:00.430Z,24.80
2023-05-03T13:23:48.441Z,25.07
2023-05-03T13:26:20.411Z,24.89
2023-05-03T13:28:56.905Z,25.14
2023-05-03T13:31:27.398Z,25.22
2023-05-03T13:33:57.493Z,25.00
2023-05-03T13:36:54.764Z,23.81
2023-05-03T13:39:28.516Z,23.61
2023-05-03T13:41:58.744Z,23.28
2023-05-03T13:44:27.031Z,23.13
2023-05-03T13:46:55.926Z,23.54
2023-05-03T13:49:30.532Z,23.43
2023-05-03T13:51:59.697Z,23.48
2023-05-03T13:54:32.114Z,23.34
2023-05-03T13:57:09.109Z,23.13
2023-05-03T13:59:48.911Z,23.17
2023-05-03T14:02:18.661Z,23.71
2023-05-03T14:04:46.846Z,23.84
2023-05-03T14:07:14.958Z,23.40
2023-05-03T14:09:43.801Z,22.75
2023-05-03T14:12:14.900Z,22.53
2023-05-03T14:14:52.556Z,22.72
2023-05-03T14:17:27.081Z,22.59
2023-05-03T14:20:03.337Z,22.67
2023-05-03T14:22:33.821Z,22.63
2023-05-03T14:25:02.489Z,22.33
2023-05-03T14:27:30.928Z,22.33
2023-05-03T14:30:03.459Z,22.55
2023-05-03T14:32:33.491Z,22.31
2023-05-03T14:35:12.725Z,22.18
2023-05-03T14:37:44.069Z,21.32
2023-05-03T14:40:13.348Z,21.17
2023-05-03T14:42:43.935Z,21.23
2023-05-03T14:45:14.319Z,20.69
2023-05-03T14:47:42.923Z,21.12
2023-05-03T14:50:11.077Z,21.32
2023-05-03T14:52:39.000Z,20.95
2023-05-03T14:55:08.605Z,21.19
2023-05-03T14:57:37.844Z,21.50
2023-05-03T15:00:09.217Z,21.80
2023-05-03T15:02:38.884Z,21.32
2023-05-03T15:05:09.028Z,21.44
2023-05-03T15:07:40.294Z,21.62
2023-05-03T15:10:10.913Z,21.83
2023-05-03T15:12:42.575Z,21.60
2023-05-03T15:15:13.116Z,21.57
2023-05-03T15:17:41.075Z,21.33
2023-05-03T15:20:14.291Z,21.25
2023-05-03T15:22:42.310Z,21.10
2023-05-03T15:25:10.971Z,21.01
2023-05-03T15:27:38.914Z,20.96
2023-05-03T15:30:11.254Z,21.33
2023-05-03T15:32:41.172Z,21.65
2023-05-03T15:35:09.773Z,21.24
2023-05-03T15:37:37.736Z,21.70
2023-05-03T15:40:09.089Z,22.08
2023-05-03T15:42:38.689Z,22.93
2023-05-03T15:45:10.073Z,23.20
2023-05-03T15:47:38.293Z,23.16
2023-05-03T15:50:08.176Z,23.33
2023-05-03T15:55:58.051Z,22.73
2023-05-03T15:58:32.398Z,23.67
2023-05-03T16:01:03.830Z,24.40
2023-05-03T16:03:33.788Z,24.67
2023-05-03T16:06:02.793Z,24.79
2023-05-03T16:09:19.385Z,24.90
2023-05-03T16:11:52.623Z,25.08
2023-05-03T16:14:24.498Z,25.21
2023-05-03T16:17:02.011Z,25.08
2023-05-03T16:19:33.327Z,25.16
2023-05-03T16:22:05.732Z,25.25
2023-05-03T16:24:37.362Z,25.13
2023-05-03T16:27:10.869Z,24.98
2023-05-03T16:29:45.445Z,25.17
2023-05-03T16:32:18.639Z,25.12
2023-05-03T16:34:52.085Z,25.07
2023-05-03T16:37:22.050Z,25.07
2023-05-03T16:39:56.585Z,24.67
2023-05-03T16:42:45.791Z,24.51
2023-05-03T16:45:36.542Z,24.44
2023-05-03T16:48:10.435Z,24.56
2023-05-03T16:50:50.222Z,24.56
2023-05-03T16:53:43.255Z,24.86
2023-05-03T16:56:16.026Z,25.38
2023-05-03T16:58:55.958Z,25.36
2023-05-03T17:01:26.479Z,25.23
2023-05-03T17:04:06.701Z,25.63
2023-05-03T17:06:43.035Z,26.05
2023-05-03T17:09:13.925Z,26.29
2023-05-03T17:11:45.492Z,26.53
2023-05-03T17:14:13.747Z,26.66
2023-05-03T17:16:41.858Z,26.86
2023-05-03T17:19:11.463Z,27.81
2023-05-03T17:21:45.557Z,28.22
2023-05-03T17:38:20.513Z,33.45
2023-05-03T17:40:53.899Z,34.16
2023-05-03T17:43:23.530Z,34.98
2023-05-03T17:45:58.129Z,34.82
2023-05-03T17:58:26.532Z,34.60
2023-05-03T18:00:56.491Z,34.20
2023-05-03T18:03:25.341Z,34.09
2023-05-03T18:06:00.964Z,34.01
2023-05-03T18:08:28.921Z,34.09
2023-05-03T18:10:59.135Z,34.05
2023-05-03T18:13:27.408Z,33.84
2023-05-03T18:15:55.578Z,33.76
2023-05-03T18:18:33.863Z,33.76
2023-05-03T18:21:05.126Z,33.71
2023-05-03T18:23:35.440Z,34.31
2023-05-03T18:26:03.379Z,34.23
2023-05-03T18:28:31.371Z,34.25
2023-05-03T18:30:59.299Z,34.52
2023-05-03T18:33:26.976Z,34.77
2023-05-03T18:35:58.369Z,34.90
2023-05-03T18:38:27.799Z,34.96
2023-05-03T18:40:58.344Z,35.10
2023-05-03T18:43:35.428Z,35.51
2023-05-03T18:46:03.233Z,35.64
2023-05-03T18:48:34.655Z,36.37
2023-05-03T18:51:05.618Z,36.95
2023-05-03T18:53:58.542Z,36.85
2023-05-03T19:15:16.325Z,36.88
2023-05-03T19:17:46.383Z,37.45
2023-05-03T19:20:17.029Z,37.65
2023-05-03T19:22:50.732Z,37.71
2023-05-03T19:25:24.743Z,37.90
2023-05-03T19:27:52.949Z,37.91
2023-05-03T19:30:23.735Z,37.88
2023-05-03T19:32:52.694Z,37.89
2023-05-03T19:35:29.099Z,37.96
2023-05-03T19:38:03.176Z,38.11
2023-05-03T19:40:34.810Z,38.24
2023-05-03T19:43:03.027Z,38.30
2023-05-03T19:45:31.118Z,38.21
2023-05-03T19:47:59.547Z,38.33
2023-05-03T19:50:29.960Z,38.85
2023-05-03T19:52:57.892Z,38.69
2023-05-03T19:55:30.858Z,38.65
2023-05-03T19:57:59.083Z,38.62
2023-05-03T20:00:27.992Z,38.33
2023-05-03T20:02:56.083Z,37.13
2023-05-03T20:05:24.247Z,35.86
2023-05-03T20:07:54.486Z,35.65
2023-05-03T20:10:46.397Z,34.90
2023-05-03T20:13:47.253Z,34.67
2023-05-03T20:16:21.625Z,33.73
2023-05-03T20:19:00.023Z,32.69
2023-05-03T20:38:43.342Z,32.92
2023-05-03T20:51:19.799Z,32.56
2023-05-03T20:54:09.656Z,32.52
2023-05-03T20:57:00.704Z,32.73
2023-05-03T20:59:31.881Z,32.99
2023-05-03T21:02:21.641Z,33.37
2023-05-03T21:04:51.765Z,33.50
2023-05-03T21:10:11.554Z,33.99
2023-05-03T21:12:42.015Z,34.09
2023-05-03T21:15:21.666Z,34.01
2023-05-03T21:17:54.678Z,34.44
2023-05-03T21:20:27.411Z,34.60
2023-05-03T21:22:55.430Z,34.86
2023-05-03T21:25:24.270Z,35.46
2023-05-03T21:28:02.403Z,35.54
2023-05-03T21:30:35.639Z,35.58
2023-05-03T21:33:04.118Z,35.92
2023-05-03T21:35:34.306Z,35.93
2023-05-03T21:38:02.564Z,35.91
2023-05-03T21:40:31.480Z,36.28
2023-05-03T21:43:07.486Z,36.57
2023-05-03T21:45:43.767Z,37.18
2023-05-03T21:48:12.764Z,37.48
2023-05-03T21:50:42.925Z,37.86
2023-05-03T21:53:23.074Z,38.01
2023-05-03T21:56:01.931Z,38.28
2023-05-03T21:58:34.212Z,37.92
2023-05-03T22:01:03.294Z,37.86
2023-05-03T22:03:32.852Z,37.95
2023-05-03T22:06:01.240Z,37.44
2023-05-03T22:08:30.207Z,37.44
2023-05-03T22:10:59.242Z,37.55
2023-05-03T22:13:27.486Z,37.39
2023-05-03T22:15:57.413Z,37.51
2023-05-03T22:22:35.429Z,37.83
2023-05-03T22:25:48.552Z,38.15
2023-05-03T22:28:31.709Z,38.30
2023-05-03T22:31:28.173Z,38.42
2023-05-03T22:34:17.276Z,39.06
2023-05-03T22:36:53.298Z,38.31
2023-05-03T22:39:43.389Z,38.25
2023-05-03T22:42:17.965Z,38.31
2023-05-03T22:44:46.148Z,37.17
2023-05-03T22:47:15.128Z,37.37
2023-05-03T22:49:45.289Z,36.95
2023-05-03T22:52:13.438Z,36.44
2023-05-03T23:02:29.781Z,36.22
2023-05-03T23:05:35.260Z,36.32
2023-05-03T23:08:06.501Z,36.25
2023-05-03T23:10:34.506Z,36.46
2023-05-03T23:13:02.523Z,36.56
2023-05-03T23:15:30.753Z,36.70
2023-05-03T23:17:58.936Z,36.69
2023-05-03T23:20:26.896Z,36.82
2023-05-03T23:22:54.983Z,36.93
2023-05-03T23:25:23.213Z,36.97
2023-05-03T23:27:53.738Z,37.14
2023-05-03T23:30:22.783Z,37.27
2023-05-03T23:32:54.436Z,37.42
2023-05-03T23:35:22.883Z,37.80
2023-05-03T23:37:51.129Z,38.05
2023-05-03T23:40:19.389Z,38.23
2023-05-03T23:42:48.771Z,38.55
2023-05-03T23:45:17.340Z,39.01
2023-05-03T23:47:45.532Z,39.30
2023-05-03T23:50:13.494Z,39.69
2023-05-03T23:52:42.083Z,40.54
2023-05-03T23:55:10.543Z,40.56
2023-05-03T23:57:40.529Z,40.77
